Hudson — CGDG — position and weather

sailwx.info

Track history (hours):
 
Tides and Currents Weather Stations Pressure Air Temp Water Temp Dewpoint Dewpoint Depression Visibility Wind Speed Wind Dir Waves Ship Positions

Oceanographic research ship Hudson (Canada)

Detailed information on ship capabilities available from University of Delaware's Ocean Information Center.

Last reported at 2018-Nov-15 10:00 UTC. Time now 2018-Nov-15 10:59 UTC.
Position N 46°36' W 052°18'.

Length 85.03 m; beam 15.2 m; draft 6.28 m.

Type: SAR. MMSI: 316024000.

Wind from 290 at 47 knots

Barometer 982.7 mb
Air temperature 1.2 ° C
Dewpoint 0.6 ° C

Date/timePositionNaut miles runAvg speedWind from/ knotsBaromVisibWave heightAir tempDewpointWater temp
2018-Nov-15 10:00N 46°36' W 052°18'27 3.9 290 / 47982.7 1.2 0.6
2018-Nov-15 03:00N 46°12' W 052°36'1010.3 260 / 47985.0 -0.5-0.9
2018-Nov-15 02:00N 46°06' W 052°48'2110.3 270 / 48986.5 -0.9-0.9
2018-Nov-15 00:00N 45°54' W 053°12'2110.3 260 / 44989.4 -0.6-0.6
2018-Nov-14 22:00N 45°42' W 053°36'1010.3 270 / 44989.9 0.9 1.0
2018-Nov-14 21:00N 45°36' W 053°48'1010.3 260 / 45990.5 3.2-1.8
2018-Nov-14 20:00N 45°30' W 054°00'1514.7 250 / 45991.5 4.0-0.6
2018-Nov-14 19:00N 45°18' W 054°12'1010.4 260 / 44991.9 5.0 0.2
2018-Nov-14 18:00N 45°12' W 054°24'1010.4 260 / 45992.5 6.1 2.6
2018-Nov-14 17:00N 45°06' W 054°36'1514.7 260 / 46993.3 7.1 1.6
2018-Nov-14 16:00N 44°54' W 054°48'4 4.3 260 / 48994.0 7.3 4.6
2018-Nov-14 15:00N 44°54' W 054°54'7 7.4 260 / 45994.8 8.4 8.2
2018-Nov-14 14:00N 44°48' W 055°00'0 0.0 250 / 26995.3 10.710.8
2018-Nov-14 13:00N 44°48' W 055°00'24 8.1 250 / 32993.6 10.210.6
2018-Nov-14 10:00N 44°24' W 054°54'0 0.0 200 / 28996.3 13.013.7
2018-Nov-14 09:00N 44°24' W 054°54'0 0.0 170 / 24998.6 12.513.2
2018-Nov-14 08:00N 44°24' W 054°54'6 6.0 160 / 291001.9 11.612.1
2018-Nov-14 07:00N 44°18' W 054°54'1312.7 160 / 211007.0 10.911.4
2018-Nov-14 06:00N 44°06' W 054°48'0 0.0 160 / 131010.7 10.410.8
2018-Nov-14 05:00N 44°06' W 054°48'0 0.0 150 / 171014.2 9.4 9.6
2018-Nov-14 03:00N 44°06' W 054°48'0 0.0 160 / 121020.1 8.1 8.0
2018-Nov-14 02:00N 44°06' W 054°48'0 0.0 190 / 121022.7 7.0 6.1
2018-Nov-14 01:00N 44°06' W 054°48'1414.2 220 / 101024.0 6.7 3.1
2018-Nov-14 00:00N 44°12' W 055°06'1514.8 230 / 151024.8 6.3 4.2
2018-Nov-13 23:00N 44°24' W 055°18'2814.0 230 / 151025.6 5.7 3.7
2018-Nov-13 21:00N 44°42' W 055°48'7 7.4 260 / 141027.3 5.0 3.1
2018-Nov-13 20:00N 44°48' W 055°54'1414.1 280 / 131027.1 4.5 3.5
2018-Nov-13 19:00N 44°54' W 056°12'1717.5 280 / 131027.2 4.2 3.1
2018-Nov-13 18:00N 45°06' W 056°30'1010.4 280 / 181026.9 3.9 2.1
2018-Nov-13 17:00N 45°12' W 056°42'1514.7 280 / 181027.3 3.7 1.6
2018-Nov-13 16:00N 45°24' W 056°54'1414.0 290 / 161027.1 3.4 1.4
2018-Nov-13 15:00N 45°30' W 057°12'1010.3 280 / 201028.0 3.2 0.8
2018-Nov-13 14:00N 45°36' W 057°24'0 0.0 290 / 151027.7 3.4-1.0
2018-Nov-13 13:00N 45°36' W 057°24'6 6.0 280 / 151027.2 4.2-0.8
2018-Nov-13 12:00N 45°42' W 057°24'1010.3 300 / 261025.6 3.1 1.6
2018-Nov-13 11:00N 45°48' W 057°12'4 4.2 290 / 241024.5 2.5 2.5
2018-Nov-13 10:00N 45°48' W 057°06'4 4.2 300 / 301023.6 3.0 1.3
2018-Nov-13 09:00N 45°48' W 057°00'0 0.0 300 / 241023.6 3.4-1.5
2018-Nov-13 08:00N 45°48' W 057°00'0 0.0 310 / 301022.9 3.5-0.3
2018-Nov-13 07:00N 45°48' W 057°00'7 7.3 300 / 271021.7 3.6-1.6
2018-Nov-13 06:00N 45°54' W 056°54'0 0.0 300 / 341020.6 3.4 1.2
2018-Nov-13 05:00N 45°54' W 056°54'0 0.0 300 / 271021.0 3.6 0.7
2018-Nov-13 04:00N 45°54' W 056°54'6 6.0 300 / 231019.6 3.6 3.4
2018-Nov-13 03:00N 46°00' W 056°54'10 5.1 310 / 281018.1 3.0 2.9
2018-Nov-13 01:00N 46°06' W 056°42'1010.3 300 / 371015.7 3.1 0.5
2018-Nov-13 00:00N 46°12' W 056°30'0 0.0 300 / 351014.6 3.1 2.7
2018-Nov-12 23:00N 46°12' W 056°30'0 0.0 290 / 271015.7 2.3 2.3
2018-Nov-12 22:00N 46°12' W 056°30'7 7.3 300 / 361013.7 2.1 2.5
2018-Nov-12 21:00N 46°18' W 056°24'14 6.9 290 / 371012.1 1.9 2.0
2018-Nov-12 19:00N 46°24' W 056°06'7 7.3 280 / 371009.7 2.8 2.7
2018-Nov-12 18:00N 46°30' W 056°00'4 2.1 280 / 281010.6 3.1 3.0
2018-Nov-12 16:00N 46°30' W 055°54'7 7.3 280 / 371008.1 2.7 2.6
2018-Nov-12 15:00N 46°36' W 055°48'7 7.3 270 / 381007.8 3.0 2.2
2018-Nov-12 14:00N 46°42' W 055°42'7 7.3 270 / 351007.9 2.9 2.1
2018-Nov-12 13:00N 46°48' W 055°36'0 0.0 270 / 311009.2 2.3 0.6
2018-Nov-12 12:00N 46°48' W 055°36'0 0.0 270 / 271008.8 2.9 2.7
2018-Nov-12 11:00N 46°48' W 055°36'8 4.1 280 / 351006.6 2.1 1.8
2018-Nov-12 09:00N 46°48' W 055°24'4 4.1 280 / 371005.6 0.7 0.8
2018-Nov-12 08:00N 46°48' W 055°18'4 4.1 270 / 351004.9 2.3-0.2
2018-Nov-12 07:00N 46°48' W 055°12'4 4.1 270 / 351004.6 1.8 1.7
2018-Nov-12 06:00N 46°48' W 055°06'7 7.3 280 / 331004.3 2.2 2.2
2018-Nov-12 05:00N 46°54' W 055°00'4 4.1 270 / 371003.5 2.6 2.4
2018-Nov-12 04:00N 46°54' W 054°54'0 0.0 270 / 381003.3 3.4-0.6
2018-Nov-12 03:00N 46°54' W 054°54'4 4.1 270 / 361003.0 3.5 0.4
2018-Nov-12 02:00N 46°54' W 054°48'4 4.1 260 / 351003.0 3.8-0.1
2018-Nov-12 01:00N 46°54' W 054°42'4 4.1 260 / 341003.0 4.1 1.6
2018-Nov-12 00:00N 46°54' W 054°36'8 4.1 260 / 361004.0 4.1 0.5
2018-Nov-11 22:00N 46°54' W 054°48'1010.2 260 / 271002.8 3.4 3.4
2018-Nov-11 21:00N 46°48' W 054°36'4 4.1 240 / 331002.4 5.3 0.9
2018-Nov-11 20:00N 46°48' W 054°30'7 7.3 240 / 371002.7 5.3-0.5
2018-Nov-11 19:00N 46°42' W 054°24'4 4.1 250 / 361002.6 5.6-0.1
2018-Nov-11 18:00N 46°42' W 054°18'8 8.2 250 / 351002.3 6.1 2.7
2018-Nov-11 17:00N 46°42' W 054°06'1010.2 250 / 341002.5 6.0 2.0
2018-Nov-11 16:00N 46°36' W 053°54'12 4.1 250 / 381002.8 6.5 0.9
2018-Nov-11 13:00N 46°36' W 053°36'16 8.2 270 / 331002.9 6.0 3.7
2018-Nov-11 11:00N 46°36' W 053°12'8 8.2 260 / 28999.7 7.9 7.9
2018-Nov-11 10:00N 46°36' W 053°00'1312.7 260 / 32997.9 8.5 8.7
2018-Nov-11 09:00N 46°48' W 052°54'6 6.0 220 / 17997.0 9.510.1
2018-Nov-11 08:00N 46°54' W 052°54'7 7.3 220 / 21996.9 9.810.4
2018-Nov-11 07:00N 47°00' W 052°48'18 9.2 180 / 22998.0 8.2 8.8
2018-Nov-11 05:00N 47°18' W 052°42'7 7.2 140 / 131005.0 5.2 5.7
2018-Nov-11 04:00N 47°24' W 052°36'6 6.0 140 / 261007.5 4.4 4.9
2018-Nov-11 03:00N 47°30' W 052°36'3 5.8 140 / 241011.1 4.2 4.6
2018-Nov-11 02:30N 47°33' W 052°35'3 5.8
2018-Nov-11 02:00N 47°30' W 052°36'3518.0 130 / 221013.7 4.4 4.8
2018-Nov-11 01:59N 47°33' W 052°35'0 0.2
2018-Nov-11 01:29N 47°33' W 052°35'3 6.8
2018-Nov-11 01:00N 47°36' W 052°36'3118.9 130 / 251015.0 3.5 3.8
2018-Nov-11 00:58N 47°33' W 052°35'3 8.0
2018-Nov-11 00:32N 47°34' W 052°40'2 3.5
2018-Nov-11 00:00N 47°33' W 052°42'3338.6
2018-Nov-11 00:00N 47°36' W 052°42'3 4.3 110 / 31018.1 2.3 2.6
2018-Nov-10 23:24N 47°33' W 052°42'3 6.2
2018-Nov-10 23:00N 47°36' W 052°42'327.5 1019.5 1.7 2.0
2018-Nov-10 22:54N 47°33' W 052°42'0 0.0
2018-Nov-10 22:15N 47°33' W 052°42'3 9.9
2018-Nov-10 22:00N 47°36' W 052°42'310.5 100 / 21021.5 1.0 1.3
2018-Nov-10 21:45N 47°33' W 052°42'0 0.0
2018-Nov-10 21:24N 47°33' W 052°42'0 0.0
2018-Nov-10 21:00N 47°33' W 052°42'3338.6
2018-Nov-10 21:00N 47°36' W 052°42'3 4.7 1022.8 0.3 0.5
2018-Nov-10 20:27N 47°33' W 052°42'3 5.6
2018-Nov-10 20:00N 47°36' W 052°42'359.8 1025.0 0.3 0.5
2018-Nov-10 19:57N 47°33' W 052°42'0 0.0
2018-Nov-10 19:15N 47°33' W 052°42'0 0.0
2018-Nov-10 19:00N 47°33' W 052°42'3326.5
2018-Nov-10 19:00N 47°36' W 052°42'3 4.0 240 / 11026.1 0.5 0.6
2018-Nov-10 18:21N 47°33' W 052°42'3 7.1
2018-Nov-10 18:00N 47°36' W 052°42'317.8 140 / 11026.5 2.2 1.0
2018-Nov-10 17:51N 47°33' W 052°42'0 0.0
2018-Nov-10 17:26N 47°33' W 052°42'3 5.9
2018-Nov-10 17:00N 47°36' W 052°42'2281.5 180 / 51027.3 1.8-0.1
2018-Nov-10 16:59N 47°34' W 052°42'2 3.8
2018-Nov-10 16:22N 47°34' W 052°39'411.3
2018-Nov-10 16:00N 47°30' W 052°36'1 5.8 180 / 21027.4 1.9-0.0
2018-Nov-10 15:51N 47°29' W 052°36'410.9
2018-Nov-10 15:30N 47°25' W 052°37'815.9
2018-Nov-10 15:00N 47°18' W 052°42'1312.7 120 / 31028.0 1.8-0.0
2018-Nov-10 14:00N 47°06' W 052°48'2412.2 050 / 41028.1 1.8 0.8
2018-Nov-10 12:00N 46°42' W 052°54'1413.7 360 / 51028.9 1.9 0.3
2018-Nov-10 11:00N 46°36' W 053°12'1413.8 020 / 41029.1 1.8 1.6
2018-Nov-10 10:00N 46°30' W 053°30'8 8.3 010 / 81028.2 2.7-0.8
2018-Nov-10 09:00N 46°30' W 053°42'1413.8 340 / 111029.2 3.4 0.1
2018-Nov-10 08:00N 46°24' W 054°00'1413.8 340 / 121028.9 4.0 1.1
2018-Nov-10 07:00N 46°18' W 054°18'1212.4 340 / 151028.3 4.5 2.6
2018-Nov-10 06:00N 46°18' W 054°36'1413.8 320 / 141027.9 4.8 4.1
2018-Nov-10 05:00N 46°12' W 054°54'1413.8 320 / 151027.2 5.0 4.7
2018-Nov-10 04:00N 46°06' W 055°12'1212.5 310 / 181027.1 5.2 5.0
2018-Nov-10 03:00N 46°06' W 055°30'1413.9 310 / 211027.2 5.3 5.0
2018-Nov-10 02:00N 46°00' W 055°48'1413.9 310 / 241027.3 5.4 5.3
2018-Nov-10 01:00N 45°54' W 056°06'2612.9 300 / 231027.2 5.1 5.0
2018-Nov-09 23:00N 45°48' W 056°42'1312.5 300 / 261026.6 5.4 5.3
2018-Nov-09 22:00N 45°48' W 057°00'1413.9 290 / 241026.2 5.6 5.4
2018-Nov-09 21:00N 45°42' W 057°18'1413.9 300 / 251025.2 5.7 5.4
2018-Nov-09 20:00N 45°36' W 057°36'1312.6 310 / 241024.5 5.4 5.3
2018-Nov-09 19:00N 45°36' W 057°54'1817.8 310 / 211024.2 6.1 5.6
2018-Nov-09 18:00N 45°30' W 058°18'1414.0 280 / 201024.0 6.5 4.8
2018-Nov-09 17:00N 45°24' W 058°36'1312.6 290 / 221023.4 6.5 4.5
2018-Nov-09 16:00N 45°24' W 058°54'1414.0 280 / 211023.6 6.9 5.6
2018-Nov-09 15:00N 45°18' W 059°12'1414.0 290 / 221023.8 7.1 6.8
2018-Nov-09 14:00N 45°12' W 059°30'1312.7 290 / 211023.5 7.3 7.2
2018-Nov-09 13:00N 45°12' W 059°48'1414.0 280 / 211023.3 7.0 7.0
2018-Nov-09 12:00N 45°06' W 060°06'1414.1 280 / 201022.9 6.9 6.7
2018-Nov-09 11:00N 45°00' W 060°24'2211.0 280 / 221022.4 6.8 6.2
2018-Nov-09 09:00N 44°54' W 060°54'1414.1 280 / 231021.7 7.4 4.9
2018-Nov-09 08:00N 44°48' W 061°12'1312.8 280 / 211021.5 7.7 5.6
2018-Nov-09 07:00N 44°48' W 061°30'1414.1 270 / 201021.6 7.9 6.1
2018-Nov-09 06:00N 44°42' W 061°48'9 8.5 280 / 191021.2 8.1 6.1
2018-Nov-09 05:00N 44°42' W 062°00'1414.1 270 / 191021.0 8.3 5.7
2018-Nov-09 04:00N 44°36' W 062°18'1414.2 270 / 181020.7 8.2 6.2
2018-Nov-09 03:00N 44°30' W 062°36'9 8.6 280 / 191020.6 8.4 5.4
2018-Nov-09 02:00N 44°30' W 062°48'1414.2 270 / 191020.3 8.4 6.1
2018-Nov-09 01:00N 44°24' W 063°06'9 8.6 280 / 181020.3 8.4 5.1
2018-Nov-09 00:00N 44°24' W 063°18'9 8.6 290 / 171020.0 8.6 5.6
2018-Nov-08 23:00N 44°24' W 063°30'1212.0 270 / 141019.3 8.4 5.0
2018-Nov-08 22:00N 44°36' W 063°30'7 7.4 270 / 101018.6 8.7 2.6
2018-Nov-08 21:00N 44°42' W 063°36'0 0.0 280 / 121017.4 9.4 3.0
2018-Nov-08 20:00N 44°42' W 063°36'0 0.0 290 / 161016.5 10.0 3.4
2018-Nov-08 19:00N 44°42' W 063°36'0 0.0 280 / 161015.4 10.6 2.8
2018-Nov-08 18:00N 44°42' W 063°36'0 0.0 290 / 181015.0 10.7 2.9
2018-Nov-08 17:00N 44°42' W 063°36'0 0.0 280 / 171014.8 10.5 3.2
2018-Nov-08 16:00N 44°42' W 063°36'0 0.0 270 / 181014.7 10.0 3.1
2018-Nov-08 15:00N 44°42' W 063°36'0 0.0 270 / 191014.8 9.5 4.0
2018-Nov-08 12:00N 44°42' W 063°36'0 0.0 260 / 141013.0 8.2 4.3
2018-Nov-08 11:00N 44°42' W 063°36'0 0.0 270 / 161012.1 8.5 3.6
2018-Nov-08 10:00N 44°42' W 063°36'0 0.0 250 / 131011.5 8.6 8.0
2018-Nov-08 08:00N 44°42' W 063°36'0 0.0 250 / 121010.7 8.6 8.6
2018-Nov-08 07:00N 44°42' W 063°36'0 0.0 240 / 121010.6 8.8 8.8
2018-Nov-08 06:00N 44°42' W 063°36'0 0.0 250 / 131010.1 8.7 8.8
2018-Nov-08 04:00N 44°42' W 063°36'0 0.0 220 / 131009.4 8.5 8.6
2018-Nov-08 03:00N 44°42' W 063°36'0 0.0 230 / 151009.5 9.1 9.2
2018-Nov-08 02:00N 44°42' W 063°36'0 0.0 250 / 131009.1 9.3 9.3
2018-Nov-08 01:00N 44°42' W 063°36'0 0.0 240 / 141008.6 9.7 9.6
2018-Nov-07 23:00N 44°42' W 063°36'0 0.0 240 / 131007.4 11.010.9
2018-Nov-07 22:00N 44°42' W 063°36'0 0.0 240 / 131007.0 12.111.2
2018-Nov-07 21:00N 44°42' W 063°36'0 0.0 240 / 141006.1 13.411.1
2018-Nov-07 20:00N 44°42' W 063°36'0 0.0 230 / 151005.6 14.911.2
2018-Nov-07 19:00N 44°42' W 063°36'0 0.0 210 / 101005.3 15.613.7
2018-Nov-07 17:00N 44°42' W 063°36'0 0.0 250 / 141005.8 14.514.5
2018-Nov-07 16:00N 44°42' W 063°36'0 0.0 240 / 141006.4 13.813.9
2018-Nov-07 15:00N 44°42' W 063°36'0 0.0 240 / 171006.8 13.413.7
2018-Nov-07 14:00N 44°42' W 063°36'0 0.0 230 / 111006.9 12.713.2
2018-Nov-07 13:00N 44°42' W 063°36'0 0.0 220 / 101007.0 12.012.6
2018-Nov-07 12:00N 44°42' W 063°36'0 0.0 220 / 101006.4 12.012.6
2018-Nov-07 11:00N 44°42' W 063°36'0 0.0 230 / 121005.7 12.413.0
2018-Nov-07 10:00N 44°42' W 063°36'0 0.0 220 / 121005.8 12.713.3
2018-Nov-07 09:00N 44°42' W 063°36'0 0.0 220 / 131005.8 13.113.9
2018-Nov-07 08:00N 44°42' W 063°36'0 0.0 220 / 151005.4 14.014.7
2018-Nov-07 07:00N 44°42' W 063°36'0 0.0 210 / 141006.5 14.214.9
2018-Nov-07 06:00N 44°42' W 063°36'0 0.0 210 / 201006.4 14.515.2
2018-Nov-07 04:00N 44°42' W 063°36'0 0.0 210 / 181007.7 15.916.7
2018-Nov-07 03:00N 44°42' W 063°36'0 0.0 200 / 161008.7 15.416.1
2018-Nov-07 02:00N 44°42' W 063°36'0 0.0 140 / 61010.1 14.114.8
2018-Nov-07 01:00N 44°42' W 063°36'   130 / 111011.5 11.612.3
Track history (hours):
 
Tides and Currents Weather Stations Pressure Air Temp Water Temp Dewpoint Dewpoint Depression Visibility Wind Speed Wind Dir Waves Ship Positions

Oceanographic research ship Hudson (Canada)

Detailed information on ship capabilities available from University of Delaware's Ocean Information Center.

Last reported at 2018-Nov-15 10:00 UTC. Time now 2018-Nov-15 10:59 UTC.
Position N 46°36' W 052°18'.

Length 85.03 m; beam 15.2 m; draft 6.28 m.

Type: SAR. MMSI: 316024000.

Wind from 290 at 47 knots

Barometer 982.7 mb
Air temperature 1.2 ° C
Dewpoint 0.6 ° C

Date/timePositionNaut miles runAvg speedWind from/ knotsBaromVisibWave heightAir tempDewpointWater temp
2018-Nov-15 10:00N 46°36' W 052°18'27 3.9 290 / 47982.7 1.2 0.6
2018-Nov-15 03:00N 46°12' W 052°36'1010.3 260 / 47985.0 -0.5-0.9
2018-Nov-15 02:00N 46°06' W 052°48'2110.3 270 / 48986.5 -0.9-0.9
2018-Nov-15 00:00N 45°54' W 053°12'2110.3 260 / 44989.4 -0.6-0.6
2018-Nov-14 22:00N 45°42' W 053°36'1010.3 270 / 44989.9 0.9 1.0
2018-Nov-14 21:00N 45°36' W 053°48'1010.3 260 / 45990.5 3.2-1.8
2018-Nov-14 20:00N 45°30' W 054°00'1514.7 250 / 45991.5 4.0-0.6
2018-Nov-14 19:00N 45°18' W 054°12'1010.4 260 / 44991.9 5.0 0.2
2018-Nov-14 18:00N 45°12' W 054°24'1010.4 260 / 45992.5 6.1 2.6
2018-Nov-14 17:00N 45°06' W 054°36'1514.7 260 / 46993.3 7.1 1.6
2018-Nov-14 16:00N 44°54' W 054°48'4 4.3 260 / 48994.0 7.3 4.6
2018-Nov-14 15:00N 44°54' W 054°54'7 7.4 260 / 45994.8 8.4 8.2
2018-Nov-14 14:00N 44°48' W 055°00'0 0.0 250 / 26995.3 10.710.8
2018-Nov-14 13:00N 44°48' W 055°00'24 8.1 250 / 32993.6 10.210.6
2018-Nov-14 10:00N 44°24' W 054°54'0 0.0 200 / 28996.3 13.013.7
2018-Nov-14 09:00N 44°24' W 054°54'0 0.0 170 / 24998.6 12.513.2
2018-Nov-14 08:00N 44°24' W 054°54'6 6.0 160 / 291001.9 11.612.1
2018-Nov-14 07:00N 44°18' W 054°54'1312.7 160 / 211007.0 10.911.4
2018-Nov-14 06:00N 44°06' W 054°48'0 0.0 160 / 131010.7 10.410.8
2018-Nov-14 05:00N 44°06' W 054°48'0 0.0 150 / 171014.2 9.4 9.6
2018-Nov-14 03:00N 44°06' W 054°48'0 0.0 160 / 121020.1 8.1 8.0
2018-Nov-14 02:00N 44°06' W 054°48'0 0.0 190 / 121022.7 7.0 6.1
2018-Nov-14 01:00N 44°06' W 054°48'1414.2 220 / 101024.0 6.7 3.1
2018-Nov-14 00:00N 44°12' W 055°06'1514.8 230 / 151024.8 6.3 4.2
2018-Nov-13 23:00N 44°24' W 055°18'2814.0 230 / 151025.6 5.7 3.7
2018-Nov-13 21:00N 44°42' W 055°48'7 7.4 260 / 141027.3 5.0 3.1
2018-Nov-13 20:00N 44°48' W 055°54'1414.1 280 / 131027.1 4.5 3.5
2018-Nov-13 19:00N 44°54' W 056°12'1717.5 280 / 131027.2 4.2 3.1
2018-Nov-13 18:00N 45°06' W 056°30'1010.4 280 / 181026.9 3.9 2.1
2018-Nov-13 17:00N 45°12' W 056°42'1514.7 280 / 181027.3 3.7 1.6
2018-Nov-13 16:00N 45°24' W 056°54'1414.0 290 / 161027.1 3.4 1.4
2018-Nov-13 15:00N 45°30' W 057°12'1010.3 280 / 201028.0 3.2 0.8
2018-Nov-13 14:00N 45°36' W 057°24'0 0.0 290 / 151027.7 3.4-1.0
2018-Nov-13 13:00N 45°36' W 057°24'6 6.0 280 / 151027.2 4.2-0.8
2018-Nov-13 12:00N 45°42' W 057°24'1010.3 300 / 261025.6 3.1 1.6
2018-Nov-13 11:00N 45°48' W 057°12'4 4.2 290 / 241024.5 2.5 2.5
2018-Nov-13 10:00N 45°48' W 057°06'4 4.2 300 / 301023.6 3.0 1.3
2018-Nov-13 09:00N 45°48' W 057°00'0 0.0 300 / 241023.6 3.4-1.5
2018-Nov-13 08:00N 45°48' W 057°00'0 0.0 310 / 301022.9 3.5-0.3
2018-Nov-13 07:00N 45°48' W 057°00'7 7.3 300 / 271021.7 3.6-1.6
2018-Nov-13 06:00N 45°54' W 056°54'0 0.0 300 / 341020.6 3.4 1.2
2018-Nov-13 05:00N 45°54' W 056°54'0 0.0 300 / 271021.0 3.6 0.7
2018-Nov-13 04:00N 45°54' W 056°54'6 6.0 300 / 231019.6 3.6 3.4
2018-Nov-13 03:00N 46°00' W 056°54'10 5.1 310 / 281018.1 3.0 2.9
2018-Nov-13 01:00N 46°06' W 056°42'1010.3 300 / 371015.7 3.1 0.5
2018-Nov-13 00:00N 46°12' W 056°30'0 0.0 300 / 351014.6 3.1 2.7
2018-Nov-12 23:00N 46°12' W 056°30'0 0.0 290 / 271015.7 2.3 2.3
2018-Nov-12 22:00N 46°12' W 056°30'7 7.3 300 / 361013.7 2.1 2.5
2018-Nov-12 21:00N 46°18' W 056°24'14 6.9 290 / 371012.1 1.9 2.0
2018-Nov-12 19:00N 46°24' W 056°06'7 7.3 280 / 371009.7 2.8 2.7
2018-Nov-12 18:00N 46°30' W 056°00'4 2.1 280 / 281010.6 3.1 3.0
2018-Nov-12 16:00N 46°30' W 055°54'7 7.3 280 / 371008.1 2.7 2.6
2018-Nov-12 15:00N 46°36' W 055°48'7 7.3 270 / 381007.8 3.0 2.2
2018-Nov-12 14:00N 46°42' W 055°42'7 7.3 270 / 351007.9 2.9 2.1
2018-Nov-12 13:00N 46°48' W 055°36'0 0.0 270 / 311009.2 2.3 0.6
2018-Nov-12 12:00N 46°48' W 055°36'0 0.0 270 / 271008.8 2.9 2.7
2018-Nov-12 11:00N 46°48' W 055°36'8 4.1 280 / 351006.6 2.1 1.8
2018-Nov-12 09:00N 46°48' W 055°24'4 4.1 280 / 371005.6 0.7 0.8
2018-Nov-12 08:00N 46°48' W 055°18'4 4.1 270 / 351004.9 2.3-0.2
2018-Nov-12 07:00N 46°48' W 055°12'4 4.1 270 / 351004.6 1.8 1.7
2018-Nov-12 06:00N 46°48' W 055°06'7 7.3 280 / 331004.3 2.2 2.2
2018-Nov-12 05:00N 46°54' W 055°00'4 4.1 270 / 371003.5 2.6 2.4
2018-Nov-12 04:00N 46°54' W 054°54'0 0.0 270 / 381003.3 3.4-0.6
2018-Nov-12 03:00N 46°54' W 054°54'4 4.1 270 / 361003.0 3.5 0.4
2018-Nov-12 02:00N 46°54' W 054°48'4 4.1 260 / 351003.0 3.8-0.1
2018-Nov-12 01:00N 46°54' W 054°42'4 4.1 260 / 341003.0 4.1 1.6
2018-Nov-12 00:00N 46°54' W 054°36'8 4.1 260 / 361004.0 4.1 0.5
2018-Nov-11 22:00N 46°54' W 054°48'1010.2 260 / 271002.8 3.4 3.4
2018-Nov-11 21:00N 46°48' W 054°36'4 4.1 240 / 331002.4 5.3 0.9
2018-Nov-11 20:00N 46°48' W 054°30'7 7.3 240 / 371002.7 5.3-0.5
2018-Nov-11 19:00N 46°42' W 054°24'4 4.1 250 / 361002.6 5.6-0.1
2018-Nov-11 18:00N 46°42' W 054°18'8 8.2 250 / 351002.3 6.1 2.7
2018-Nov-11 17:00N 46°42' W 054°06'1010.2 250 / 341002.5 6.0 2.0
2018-Nov-11 16:00N 46°36' W 053°54'12 4.1 250 / 381002.8 6.5 0.9
2018-Nov-11 13:00N 46°36' W 053°36'16 8.2 270 / 331002.9 6.0 3.7
2018-Nov-11 11:00N 46°36' W 053°12'8 8.2 260 / 28999.7 7.9 7.9
2018-Nov-11 10:00N 46°36' W 053°00'1312.7 260 / 32997.9 8.5 8.7
2018-Nov-11 09:00N 46°48' W 052°54'6 6.0 220 / 17997.0 9.510.1
2018-Nov-11 08:00N 46°54' W 052°54'7 7.3 220 / 21996.9 9.810.4
2018-Nov-11 07:00N 47°00' W 052°48'18 9.2 180 / 22998.0 8.2 8.8
2018-Nov-11 05:00N 47°18' W 052°42'7 7.2 140 / 131005.0 5.2 5.7
2018-Nov-11 04:00N 47°24' W 052°36'6 6.0 140 / 261007.5 4.4 4.9
2018-Nov-11 03:00N 47°30' W 052°36'3 5.8 140 / 241011.1 4.2 4.6
2018-Nov-11 02:30N 47°33' W 052°35'3 5.8
2018-Nov-11 02:00N 47°30' W 052°36'3518.0 130 / 221013.7 4.4 4.8
2018-Nov-11 01:59N 47°33' W 052°35'0 0.2
2018-Nov-11 01:29N 47°33' W 052°35'3 6.8
2018-Nov-11 01:00N 47°36' W 052°36'3118.9 130 / 251015.0 3.5 3.8
2018-Nov-11 00:58N 47°33' W 052°35'3 8.0
2018-Nov-11 00:32N 47°34' W 052°40'2 3.5
2018-Nov-11 00:00N 47°33' W 052°42'3338.6
2018-Nov-11 00:00N 47°36' W 052°42'3 4.3 110 / 31018.1 2.3 2.6
2018-Nov-10 23:24N 47°33' W 052°42'3 6.2
2018-Nov-10 23:00N 47°36' W 052°42'327.5 1019.5 1.7 2.0
2018-Nov-10 22:54N 47°33' W 052°42'0 0.0
2018-Nov-10 22:15N 47°33' W 052°42'3 9.9
2018-Nov-10 22:00N 47°36' W 052°42'310.5 100 / 21021.5 1.0 1.3
2018-Nov-10 21:45N 47°33' W 052°42'0 0.0
2018-Nov-10 21:24N 47°33' W 052°42'0 0.0
2018-Nov-10 21:00N 47°33' W 052°42'3338.6
2018-Nov-10 21:00N 47°36' W 052°42'3 4.7 1022.8 0.3 0.5
2018-Nov-10 20:27N 47°33' W 052°42'3 5.6
2018-Nov-10 20:00N 47°36' W 052°42'359.8 1025.0 0.3 0.5
2018-Nov-10 19:57N 47°33' W 052°42'0 0.0
2018-Nov-10 19:15N 47°33' W 052°42'0 0.0
2018-Nov-10 19:00N 47°33' W 052°42'3326.5
2018-Nov-10 19:00N 47°36' W 052°42'3 4.0 240 / 11026.1 0.5 0.6
2018-Nov-10 18:21N 47°33' W 052°42'3 7.1
2018-Nov-10 18:00N 47°36' W 052°42'317.8 140 / 11026.5 2.2 1.0
2018-Nov-10 17:51N 47°33' W 052°42'0 0.0
2018-Nov-10 17:26N 47°33' W 052°42'3 5.9
2018-Nov-10 17:00N 47°36' W 052°42'2281.5 180 / 51027.3 1.8-0.1
2018-Nov-10 16:59N 47°34' W 052°42'2 3.8
2018-Nov-10 16:22N 47°34' W 052°39'411.3
2018-Nov-10 16:00N 47°30' W 052°36'1 5.8 180 / 21027.4 1.9-0.0
2018-Nov-10 15:51N 47°29' W 052°36'410.9
2018-Nov-10 15:30N 47°25' W 052°37'815.9
2018-Nov-10 15:00N 47°18' W 052°42'1312.7 120 / 31028.0 1.8-0.0
2018-Nov-10 14:00N 47°06' W 052°48'2412.2 050 / 41028.1 1.8 0.8
2018-Nov-10 12:00N 46°42' W 052°54'1413.7 360 / 51028.9 1.9 0.3
2018-Nov-10 11:00N 46°36' W 053°12'1413.8 020 / 41029.1 1.8 1.6
2018-Nov-10 10:00N 46°30' W 053°30'8 8.3 010 / 81028.2 2.7-0.8
2018-Nov-10 09:00N 46°30' W 053°42'1413.8 340 / 111029.2 3.4 0.1
2018-Nov-10 08:00N 46°24' W 054°00'1413.8 340 / 121028.9 4.0 1.1
2018-Nov-10 07:00N 46°18' W 054°18'1212.4 340 / 151028.3 4.5 2.6
2018-Nov-10 06:00N 46°18' W 054°36'1413.8 320 / 141027.9 4.8 4.1
2018-Nov-10 05:00N 46°12' W 054°54'1413.8 320 / 151027.2 5.0 4.7
2018-Nov-10 04:00N 46°06' W 055°12'1212.5 310 / 181027.1 5.2 5.0
2018-Nov-10 03:00N 46°06' W 055°30'1413.9 310 / 211027.2 5.3 5.0
2018-Nov-10 02:00N 46°00' W 055°48'1413.9 310 / 241027.3 5.4 5.3
2018-Nov-10 01:00N 45°54' W 056°06'2612.9 300 / 231027.2 5.1 5.0
2018-Nov-09 23:00N 45°48' W 056°42'1312.5 300 / 261026.6 5.4 5.3
2018-Nov-09 22:00N 45°48' W 057°00'1413.9 290 / 241026.2 5.6 5.4
2018-Nov-09 21:00N 45°42' W 057°18'1413.9 300 / 251025.2 5.7 5.4
2018-Nov-09 20:00N 45°36' W 057°36'1312.6 310 / 241024.5 5.4 5.3
2018-Nov-09 19:00N 45°36' W 057°54'1817.8 310 / 211024.2 6.1 5.6
2018-Nov-09 18:00N 45°30' W 058°18'1414.0 280 / 201024.0 6.5 4.8
2018-Nov-09 17:00N 45°24' W 058°36'1312.6 290 / 221023.4 6.5 4.5
2018-Nov-09 16:00N 45°24' W 058°54'1414.0 280 / 211023.6 6.9 5.6
2018-Nov-09 15:00N 45°18' W 059°12'1414.0 290 / 221023.8 7.1 6.8
2018-Nov-09 14:00N 45°12' W 059°30'1312.7 290 / 211023.5 7.3 7.2
2018-Nov-09 13:00N 45°12' W 059°48'1414.0 280 / 211023.3 7.0 7.0
2018-Nov-09 12:00N 45°06' W 060°06'1414.1 280 / 201022.9 6.9 6.7
2018-Nov-09 11:00N 45°00' W 060°24'2211.0 280 / 221022.4 6.8 6.2
2018-Nov-09 09:00N 44°54' W 060°54'1414.1 280 / 231021.7 7.4 4.9
2018-Nov-09 08:00N 44°48' W 061°12'1312.8 280 / 211021.5 7.7 5.6
2018-Nov-09 07:00N 44°48' W 061°30'1414.1 270 / 201021.6 7.9 6.1
2018-Nov-09 06:00N 44°42' W 061°48'9 8.5 280 / 191021.2 8.1 6.1
2018-Nov-09 05:00N 44°42' W 062°00'1414.1 270 / 191021.0 8.3 5.7
2018-Nov-09 04:00N 44°36' W 062°18'1414.2 270 / 181020.7 8.2 6.2
2018-Nov-09 03:00N 44°30' W 062°36'9 8.6 280 / 191020.6 8.4 5.4
2018-Nov-09 02:00N 44°30' W 062°48'1414.2 270 / 191020.3 8.4 6.1
2018-Nov-09 01:00N 44°24' W 063°06'9 8.6 280 / 181020.3 8.4 5.1
2018-Nov-09 00:00N 44°24' W 063°18'9 8.6 290 / 171020.0 8.6 5.6
2018-Nov-08 23:00N 44°24' W 063°30'1212.0 270 / 141019.3 8.4 5.0
2018-Nov-08 22:00N 44°36' W 063°30'7 7.4 270 / 101018.6 8.7 2.6
2018-Nov-08 21:00N 44°42' W 063°36'0 0.0 280 / 121017.4 9.4 3.0
2018-Nov-08 20:00N 44°42' W 063°36'0 0.0 290 / 161016.5 10.0 3.4
2018-Nov-08 19:00N 44°42' W 063°36'0 0.0 280 / 161015.4 10.6 2.8
2018-Nov-08 18:00N 44°42' W 063°36'0 0.0 290 / 181015.0 10.7 2.9
2018-Nov-08 17:00N 44°42' W 063°36'0 0.0 280 / 171014.8 10.5 3.2
2018-Nov-08 16:00N 44°42' W 063°36'0 0.0 270 / 181014.7 10.0 3.1
2018-Nov-08 15:00N 44°42' W 063°36'0 0.0 270 / 191014.8 9.5 4.0
2018-Nov-08 12:00N 44°42' W 063°36'0 0.0 260 / 141013.0 8.2 4.3
2018-Nov-08 11:00N 44°42' W 063°36'0 0.0 270 / 161012.1 8.5 3.6
2018-Nov-08 10:00N 44°42' W 063°36'0 0.0 250 / 131011.5 8.6 8.0
2018-Nov-08 08:00N 44°42' W 063°36'0 0.0 250 / 121010.7 8.6 8.6
2018-Nov-08 07:00N 44°42' W 063°36'0 0.0 240 / 121010.6 8.8 8.8
2018-Nov-08 06:00N 44°42' W 063°36'0 0.0 250 / 131010.1 8.7 8.8
2018-Nov-08 04:00N 44°42' W 063°36'0 0.0 220 / 131009.4 8.5 8.6
2018-Nov-08 03:00N 44°42' W 063°36'0 0.0 230 / 151009.5 9.1 9.2
2018-Nov-08 02:00N 44°42' W 063°36'0 0.0 250 / 131009.1 9.3 9.3
2018-Nov-08 01:00N 44°42' W 063°36'0 0.0 240 / 141008.6 9.7 9.6
2018-Nov-07 23:00N 44°42' W 063°36'0 0.0 240 / 131007.4 11.010.9
2018-Nov-07 22:00N 44°42' W 063°36'0 0.0 240 / 131007.0 12.111.2
2018-Nov-07 21:00N 44°42' W 063°36'0 0.0 240 / 141006.1 13.411.1
2018-Nov-07 20:00N 44°42' W 063°36'0 0.0 230 / 151005.6 14.911.2
2018-Nov-07 19:00N 44°42' W 063°36'0 0.0 210 / 101005.3 15.613.7
2018-Nov-07 17:00N 44°42' W 063°36'0 0.0 250 / 141005.8 14.514.5
2018-Nov-07 16:00N 44°42' W 063°36'0 0.0 240 / 141006.4 13.813.9
2018-Nov-07 15:00N 44°42' W 063°36'0 0.0 240 / 171006.8 13.413.7
2018-Nov-07 14:00N 44°42' W 063°36'0 0.0 230 / 111006.9 12.713.2
2018-Nov-07 13:00N 44°42' W 063°36'0 0.0 220 / 101007.0 12.012.6
2018-Nov-07 12:00N 44°42' W 063°36'0 0.0 220 / 101006.4 12.012.6
2018-Nov-07 11:00N 44°42' W 063°36'0 0.0 230 / 121005.7 12.413.0
2018-Nov-07 10:00N 44°42' W 063°36'0 0.0 220 / 121005.8 12.713.3
2018-Nov-07 09:00N 44°42' W 063°36'0 0.0 220 / 131005.8 13.113.9
2018-Nov-07 08:00N 44°42' W 063°36'0 0.0 220 / 151005.4 14.014.7
2018-Nov-07 07:00N 44°42' W 063°36'0 0.0 210 / 141006.5 14.214.9
2018-Nov-07 06:00N 44°42' W 063°36'0 0.0 210 / 201006.4 14.515.2
2018-Nov-07 04:00N 44°42' W 063°36'0 0.0 210 / 181007.7 15.916.7
2018-Nov-07 03:00N 44°42' W 063°36'0 0.0 200 / 161008.7 15.416.1
2018-Nov-07 02:00N 44°42' W 063°36'0 0.0 140 / 61010.1 14.114.8
2018-Nov-07 01:00N 44°42' W 063°36'   130 / 111011.5 11.612.3

Dump ship's entire track history